createdAt,value
2023-07-24T09:23:51.321Z,32.22
2023-07-24T09:27:04.174Z,32.37
2023-07-24T09:29:49.761Z,32.53
2023-07-24T09:32:27.047Z,32.95
2023-07-24T09:34:55.594Z,32.90
2023-07-24T09:37:27.764Z,33.12
2023-07-24T09:39:55.898Z,33.14
2023-07-24T09:54:11.856Z,33.88
2023-07-24T09:57:20.537Z,33.34
2023-07-24T10:00:04.210Z,32.67
2023-07-24T10:20:03.605Z,32.44
2023-07-24T10:23:22.344Z,32.32
2023-07-24T10:26:17.331Z,32.70
2023-07-24T10:40:10.936Z,31.66
2023-07-24T10:50:08.402Z,31.25
2023-07-24T10:57:51.151Z,32.04
2023-07-24T11:00:23.720Z,31.88
2023-07-24T11:26:18.965Z,32.74
2023-07-24T11:29:31.672Z,32.43
2023-07-24T11:32:10.576Z,32.69
2023-07-24T11:35:19.027Z,32.69
2023-07-24T11:37:50.961Z,32.03
2023-07-24T11:40:21.644Z,31.65
2023-07-24T11:51:13.908Z,32.21
2023-07-24T11:54:21.826Z,32.05
2023-07-24T12:00:52.729Z,32.18
2023-07-24T12:04:47.011Z,32.49
2023-07-24T12:07:37.261Z,31.87
2023-07-24T12:10:27.337Z,32.08
2023-07-24T12:13:03.617Z,31.79
2023-07-24T12:15:31.736Z,32.05
2023-07-24T12:20:36.500Z,31.12
2023-07-24T12:23:33.922Z,31.13
2023-07-24T12:26:31.202Z,30.93
2023-07-24T12:34:43.142Z,30.99
2023-07-24T12:37:29.964Z,30.83
2023-07-24T12:42:46.034Z,30.94
2023-07-24T12:45:14.581Z,30.90
2023-07-24T12:47:42.677Z,30.93
2023-07-24T12:50:18.375Z,31.02
2023-07-24T12:55:55.625Z,31.61
2023-07-24T12:58:30.343Z,31.90
2023-07-24T13:01:21.997Z,32.36
2023-07-24T13:04:02.908Z,32.73
2023-07-24T13:06:35.293Z,33.00
2023-07-24T13:09:32.713Z,32.77
2023-07-24T13:12:31.650Z,32.89
2023-07-24T13:15:00.927Z,32.86
2023-07-24T13:17:28.588Z,32.83
2023-07-24T13:19:56.701Z,32.86
2023-07-24T13:25:43.517Z,32.61
2023-07-24T13:28:44.458Z,32.51
2023-07-24T13:31:41.770Z,32.22
2023-07-24T13:34:42.655Z,32.47
2023-07-24T13:37:39.464Z,32.77
2023-07-24T13:42:55.935Z,32.96
2023-07-24T13:45:29.609Z,33.13
2023-07-24T13:47:58.938Z,32.83
2023-07-24T13:50:49.291Z,33.20
2023-07-24T13:57:18.525Z,32.77
2023-07-24T14:09:27.006Z,32.73
2023-07-24T14:15:17.830Z,32.53
2023-07-24T14:18:06.171Z,31.87
2023-07-24T14:21:02.207Z,31.65
2023-07-24T14:23:49.515Z,31.71
2023-07-24T14:31:52.571Z,31.60
2023-07-24T14:34:56.283Z,31.64
2023-07-24T14:37:47.240Z,31.20
2023-07-24T14:40:17.006Z,30.91
2023-07-24T14:42:47.204Z,31.40
2023-07-24T14:45:16.399Z,31.03
2023-07-24T14:51:11.137Z,30.65
2023-07-24T14:56:57.396Z,31.08
2023-07-24T14:59:32.340Z,30.59
2023-07-24T15:02:02.896Z,30.46
2023-07-24T15:04:30.937Z,30.60
2023-07-24T15:07:27.067Z,30.44
2023-07-24T15:09:55.454Z,30.30
2023-07-24T15:12:35.025Z,30.39
2023-07-24T15:15:03.091Z,30.57
2023-07-24T15:17:31.884Z,30.47
2023-07-24T15:20:27.746Z,30.53
2023-07-24T15:25:51.764Z,30.36
2023-07-24T15:28:21.089Z,30.36
2023-07-24T15:30:49.562Z,30.03
2023-07-24T15:33:20.177Z,29.92
2023-07-24T15:35:53.587Z,30.07
2023-07-24T15:48:26.289Z,29.60
2023-07-24T15:51:14.274Z,29.73
2023-07-24T15:54:26.428Z,29.47
2023-07-24T15:56:55.134Z,29.58
2023-07-24T15:59:25.756Z,29.50
2023-07-24T16:01:56.509Z,29.20
2023-07-24T16:04:26.124Z,29.24
2023-07-24T16:06:56.287Z,29.44
2023-07-24T16:09:42.794Z,29.09
2023-07-24T16:12:33.229Z,28.83
2023-07-24T16:15:01.318Z,28.82
2023-07-24T16:17:33.707Z,28.59
2023-07-24T16:20:05.129Z,28.99
2023-07-24T16:22:33.423Z,28.64
2023-07-24T16:25:01.081Z,28.73
2023-07-24T16:29:59.918Z,28.49
2023-07-24T16:32:28.924Z,28.54
2023-07-24T16:34:58.596Z,28.22
2023-07-24T16:37:30.861Z,28.49
2023-07-24T16:39:59.390Z,28.06
2023-07-24T16:42:27.787Z,27.96
2023-07-24T16:44:59.529Z,28.00
2023-07-24T16:47:27.465Z,28.18
2023-07-24T16:53:17.564Z,27.63
2023-07-24T16:56:15.095Z,28.00
2023-07-24T16:59:22.707Z,27.54
2023-07-24T17:02:24.811Z,27.58
2023-07-24T17:04:56.151Z,27.87
2023-07-24T17:07:25.909Z,27.57
2023-07-24T17:09:57.139Z,27.33
2023-07-24T17:12:27.547Z,27.47
2023-07-24T17:14:55.255Z,27.37
2023-07-24T17:17:34.513Z,27.48
2023-07-24T17:20:07.781Z,27.33
2023-07-24T17:22:38.170Z,27.05
2023-07-24T17:25:10.530Z,27.13
2023-07-24T17:27:50.970Z,27.31
2023-07-24T17:30:20.746Z,27.01
2023-07-24T17:35:39.619Z,27.13
2023-07-24T17:38:21.253Z,27.09
2023-07-24T17:40:51.574Z,26.84
2023-07-24T17:43:23.453Z,26.68
2023-07-24T17:45:52.967Z,26.62
2023-07-24T17:48:58.005Z,26.41
2023-07-24T17:52:05.912Z,26.39
2023-07-24T17:57:34.431Z,26.74
2023-07-24T18:00:21.177Z,26.53
2023-07-24T18:05:58.646Z,26.50
2023-07-24T18:08:29.402Z,26.47
2023-07-24T18:11:26.992Z,26.16
2023-07-24T18:14:24.383Z,26.00
2023-07-24T18:17:30.820Z,26.09
2023-07-24T18:20:37.630Z,25.99
2023-07-24T18:23:39.267Z,25.90
2023-07-24T18:30:00.196Z,25.87
2023-07-24T18:33:16.146Z,26.00
2023-07-24T18:35:46.171Z,26.00
2023-07-24T18:38:31.101Z,26.19
2023-07-24T18:44:37.630Z,25.85
2023-07-24T18:51:06.821Z,25.98
2023-07-24T18:53:35.440Z,25.78
2023-07-24T18:56:05.782Z,25.60
2023-07-24T18:58:36.702Z,25.50
2023-07-24T19:01:13.171Z,25.40
2023-07-24T19:03:41.272Z,25.86
2023-07-24T19:06:44.988Z,25.39
2023-07-24T19:09:53.285Z,25.42
2023-07-24T19:12:45.450Z,25.65
2023-07-24T19:15:16.188Z,25.67
2023-07-24T19:18:02.129Z,25.46
2023-07-24T19:20:53.561Z,25.30
2023-07-24T19:23:32.129Z,25.72
2023-07-24T19:26:29.056Z,25.69
2023-07-24T19:29:29.748Z,25.47
2023-07-24T19:32:25.044Z,25.25
2023-07-24T19:45:55.199Z,25.04
2023-07-24T20:10:55.961Z,24.84
2023-07-24T20:18:04.593Z,24.77
2023-07-24T20:27:48.896Z,25.03
2023-07-24T20:28:13.395Z,24.73
2023-07-24T20:38:44.584Z,25.06
2023-07-24T21:21:23.617Z,24.05
2023-07-24T21:29:08.833Z,23.88
2023-07-24T21:40:13.857Z,24.13
2023-07-24T22:51:05.182Z,23.16
2023-07-24T23:10:38.066Z,23.07
